Cecil, Arkansas
Current Conditions -  °F | °C
As of 9:53 PM on Sunday 23 Nov 2014 (Local Time) from KFSM Reporting Station
Overcast Overcast  
Wind Chill: 52°   Ceiling: 2000
Heat Index: 52°   Visibility: 10mi
Dew Point: 44°   Wind: 21mph
Humidity: 74%   Direction: 280°W
Pressure: 29.49"   Gusts: 30mph
Location:  35.44°N, 93.95°W
Report Text: KFSM 240353Z AUTO 28018G26KT 10SM OVC020 11/07 A2949 RMK AO2 PK WND 28034/0333 PRESRR SLP986 T01110067 TSNO
Loading
Personal Weather Stations






























Interactive Weather Map New forecast layout! Learn more

10-Day Weather Forecast

Advertisements
Track Severe Weather on mobile